createdAt,value
2023-03-04T00:00:31.042Z,2.30
2023-03-04T00:02:58.087Z,2.30
2023-03-04T00:05:25.053Z,2.30
2023-03-04T00:07:51.979Z,2.30
2023-03-04T00:10:18.984Z,2.30
2023-03-04T00:12:46.030Z,2.30
2023-03-04T00:15:12.919Z,2.30
2023-03-04T00:17:39.943Z,2.30
2023-03-04T00:20:07.992Z,2.20
2023-03-04T00:22:35.043Z,2.20
2023-03-04T00:25:01.969Z,2.20
2023-03-04T00:27:28.862Z,2.20
2023-03-04T00:29:56.866Z,2.20
2023-03-04T00:32:23.905Z,2.20
2023-03-04T00:34:51.149Z,2.20
2023-03-04T00:37:18.084Z,2.20
2023-03-04T00:39:45.008Z,2.20
2023-03-04T00:42:12.391Z,2.20
2023-03-04T00:44:39.349Z,2.20
2023-03-04T00:47:06.325Z,2.20
2023-03-04T00:49:33.250Z,2.10
2023-03-04T00:52:00.211Z,2.20
2023-03-04T00:54:27.301Z,2.20
2023-03-04T00:56:54.262Z,2.10
2023-03-04T00:59:21.191Z,2.10
2023-03-04T01:01:48.113Z,2.10
2023-03-04T01:04:17.440Z,2.10
2023-03-04T01:06:44.601Z,2.10
2023-03-04T01:09:12.496Z,2.10
2023-03-04T01:11:39.452Z,2.10
2023-03-04T01:14:06.425Z,2.10
2023-03-04T01:16:33.637Z,2.10
2023-03-04T01:19:00.674Z,2.00
2023-03-04T01:21:27.649Z,2.00
2023-03-04T01:23:56.023Z,2.00
2023-03-04T01:26:22.906Z,2.00
2023-03-04T01:28:49.939Z,1.90
2023-03-04T01:31:17.139Z,1.90
2023-03-04T01:33:44.658Z,1.90
2023-03-04T01:36:11.753Z,1.90
2023-03-04T01:38:38.712Z,1.90
2023-03-04T01:41:07.359Z,1.90
2023-03-04T01:43:37.246Z,1.80
2023-03-04T01:46:05.281Z,1.80
2023-03-04T01:48:37.168Z,1.80
2023-03-04T01:51:06.949Z,1.70
2023-03-04T01:53:34.306Z,1.70
2023-03-04T01:56:17.115Z,1.70
2023-03-04T01:58:44.148Z,1.70
2023-03-04T02:01:12.917Z,1.60
2023-03-04T02:03:40.591Z,1.60
2023-03-04T02:06:07.701Z,1.60
2023-03-04T02:08:35.143Z,1.50
2023-03-04T02:11:02.187Z,1.50
2023-03-04T02:13:29.448Z,1.50
2023-03-04T02:15:56.441Z,1.50
2023-03-04T02:18:24.490Z,1.50
2023-03-04T02:21:11.780Z,1.50
2023-03-04T02:24:00.549Z,1.60
2023-03-04T02:26:29.777Z,1.60
2023-03-04T02:28:59.979Z,1.60
2023-03-04T02:31:52.186Z,1.60
2023-03-04T02:34:31.811Z,1.60
2023-03-04T02:36:59.761Z,1.60
2023-03-04T02:39:35.972Z,1.60
2023-03-04T02:42:04.177Z,1.60
2023-03-04T02:44:37.223Z,1.60
2023-03-04T02:47:07.987Z,1.60
2023-03-04T02:49:37.724Z,1.50
2023-03-04T02:52:17.649Z,1.50
2023-03-04T02:54:44.929Z,1.50
2023-03-04T02:57:14.103Z,1.50
2023-03-04T02:59:43.866Z,1.50
2023-03-04T03:02:15.813Z,1.50
2023-03-04T03:04:43.178Z,1.50
2023-03-04T03:07:13.456Z,1.50
2023-03-04T03:09:41.255Z,1.50
2023-03-04T03:12:08.273Z,1.40
2023-03-04T03:14:35.241Z,1.40
2023-03-04T03:17:04.235Z,1.40
2023-03-04T03:19:31.909Z,1.40
2023-03-04T03:22:00.871Z,1.40
2023-03-04T03:24:27.911Z,1.40
2023-03-04T03:26:55.626Z,1.40
2023-03-04T03:29:22.534Z,1.40
2023-03-04T03:31:49.713Z,1.40
2023-03-04T03:34:18.101Z,1.40
2023-03-04T03:36:45.105Z,1.40
2023-03-04T03:39:12.165Z,1.50
2023-03-04T03:41:39.129Z,1.50
2023-03-04T03:44:06.050Z,1.50
2023-03-04T03:46:33.121Z,1.50
2023-03-04T03:49:00.106Z,1.50
2023-03-04T03:51:27.449Z,1.50
2023-03-04T03:53:54.366Z,1.50
2023-03-04T03:56:21.278Z,1.50
2023-03-04T03:58:48.455Z,1.50
2023-03-04T04:01:15.394Z,1.50
2023-03-04T04:03:43.155Z,1.60
2023-03-04T04:06:10.280Z,1.60
2023-03-04T04:08:37.208Z,1.60
2023-03-04T04:11:04.345Z,1.60
2023-03-04T04:13:31.272Z,1.60
2023-03-04T04:15:59.468Z,1.60
2023-03-04T04:18:26.748Z,1.60
2023-03-04T04:20:54.269Z,1.60
2023-03-04T04:23:21.560Z,1.50
2023-03-04T04:25:48.438Z,1.60
2023-03-04T04:28:15.410Z,1.60
2023-03-04T04:30:42.488Z,1.60
2023-03-04T04:33:10.519Z,1.60
2023-03-04T04:35:38.982Z,1.60
2023-03-04T04:38:07.236Z,1.60
2023-03-04T04:40:34.262Z,1.60
2023-03-04T04:43:01.421Z,1.60
2023-03-04T04:45:28.445Z,1.70
2023-03-04T04:47:57.520Z,1.70
2023-03-04T04:50:28.239Z,1.70
2023-03-04T04:52:55.149Z,1.70
2023-03-04T04:55:22.024Z,1.70
2023-03-04T04:57:49.015Z,1.80
2023-03-04T05:00:18.899Z,1.80
2023-03-04T05:02:46.009Z,1.80
2023-03-04T05:05:13.253Z,1.80
2023-03-04T05:07:40.241Z,1.80
2023-03-04T05:10:07.914Z,1.80
2023-03-04T05:12:34.988Z,1.90
2023-03-04T05:15:01.986Z,1.90
2023-03-04T05:17:29.104Z,1.90
2023-03-04T05:19:56.042Z,1.90
2023-03-04T05:22:23.053Z,1.90
2023-03-04T05:24:50.152Z,1.90
2023-03-04T05:27:17.405Z,1.90
2023-03-04T05:29:46.843Z,1.90
2023-03-04T05:32:13.980Z,1.90
2023-03-04T05:34:41.029Z,1.90
2023-03-04T05:37:08.274Z,1.90
2023-03-04T05:39:35.232Z,2.00
2023-03-04T05:42:02.264Z,2.10
2023-03-04T05:44:29.247Z,2.10
2023-03-04T05:46:56.253Z,2.10
2023-03-04T05:49:23.298Z,2.10
2023-03-04T05:51:50.757Z,2.10
2023-03-04T05:54:18.129Z,2.20
2023-03-04T05:56:45.377Z,2.20
2023-03-04T05:59:12.466Z,2.20
2023-03-04T06:01:39.627Z,2.20
2023-03-04T06:04:06.944Z,2.30
2023-03-04T06:06:33.988Z,2.40
2023-03-04T06:09:01.169Z,2.40
2023-03-04T06:11:28.099Z,2.50
2023-03-04T06:13:55.173Z,2.50
2023-03-04T06:16:22.222Z,2.50
2023-03-04T06:18:49.195Z,2.60
2023-03-04T06:21:17.339Z,2.60
2023-03-04T06:23:45.275Z,2.70
2023-03-04T06:26:15.494Z,2.70
2023-03-04T06:28:43.516Z,2.80
2023-03-04T06:31:11.076Z,2.80
2023-03-04T06:33:38.166Z,2.90
2023-03-04T06:36:05.596Z,2.90
2023-03-04T06:38:32.593Z,2.90
2023-03-04T06:41:08.601Z,3.00
2023-03-04T06:43:36.065Z,3.10
2023-03-04T06:46:03.235Z,3.10
2023-03-04T06:48:30.434Z,3.20
2023-03-04T06:50:57.442Z,3.20
2023-03-04T06:53:24.413Z,3.30
2023-03-04T06:55:51.358Z,3.30
2023-03-04T06:58:18.287Z,3.40
2023-03-04T07:00:45.476Z,3.50
2023-03-04T07:03:13.476Z,3.50
2023-03-04T07:05:40.626Z,3.60
2023-03-04T07:08:07.636Z,3.70
2023-03-04T07:10:34.710Z,3.70
2023-03-04T07:13:02.089Z,3.80
2023-03-04T07:15:29.279Z,3.80
2023-03-04T07:17:56.164Z,3.90
2023-03-04T07:20:23.712Z,3.90
2023-03-04T07:22:50.710Z,4.00
2023-03-04T07:25:18.100Z,4.00
2023-03-04T07:27:45.102Z,4.10
2023-03-04T07:30:12.778Z,4.20
2023-03-04T07:32:39.804Z,4.20
2023-03-04T07:35:07.735Z,4.30
2023-03-04T07:37:34.704Z,4.40
2023-03-04T07:40:01.585Z,4.50
2023-03-04T07:42:28.516Z,4.50
2023-03-04T07:45:05.465Z,4.70
2023-03-04T07:47:32.598Z,4.70
2023-03-04T07:49:59.485Z,4.80
2023-03-04T07:52:26.529Z,4.90
2023-03-04T07:54:53.391Z,4.90
2023-03-04T07:57:20.418Z,5.00
2023-03-04T07:59:47.658Z,5.10
2023-03-04T08:02:15.548Z,5.10
2023-03-04T08:04:42.636Z,5.20
2023-03-04T08:07:09.716Z,5.30
2023-03-04T08:09:36.632Z,5.40
2023-03-04T08:12:03.790Z,5.40
2023-03-04T08:14:30.661Z,5.50
2023-03-04T08:16:57.628Z,5.50
2023-03-04T08:19:26.014Z,5.50
2023-03-04T08:21:53.033Z,5.60
2023-03-04T08:24:20.011Z,5.70
2023-03-04T08:26:50.289Z,5.70
2023-03-04T08:29:21.921Z,5.70
2023-03-04T08:31:52.482Z,5.70
2023-03-04T08:34:22.538Z,5.70
2023-03-04T08:36:49.609Z,5.80
2023-03-04T08:39:18.293Z,5.90
2023-03-04T08:41:47.203Z,6.00
2023-03-04T08:44:14.577Z,6.00
2023-03-04T08:46:43.268Z,5.90
2023-03-04T08:49:12.863Z,5.90
2023-03-04T08:51:40.079Z,5.90
2023-03-04T08:54:07.006Z,5.90
2023-03-04T08:56:34.276Z,6.00
2023-03-04T08:59:01.182Z,6.00
2023-03-04T09:01:28.289Z,6.00
2023-03-04T09:03:55.485Z,6.10
2023-03-04T09:06:22.404Z,6.10
2023-03-04T09:08:49.485Z,6.20
2023-03-04T09:11:17.160Z,6.20
2023-03-04T09:13:44.187Z,6.30
2023-03-04T09:16:13.787Z,6.30
2023-03-04T09:18:42.519Z,6.40
2023-03-04T09:21:10.207Z,6.40
2023-03-04T09:23:38.070Z,6.40
2023-03-04T09:26:25.501Z,6.40
2023-03-04T09:28:55.542Z,6.50
2023-03-04T09:31:23.130Z,6.60
2023-03-04T09:33:51.554Z,6.60
2023-03-04T09:36:18.676Z,6.70
2023-03-04T09:38:46.339Z,6.80
2023-03-04T09:41:37.488Z,6.90
2023-03-04T09:44:16.206Z,6.90
2023-03-04T09:46:45.504Z,7.00
2023-03-04T09:49:14.110Z,7.10
2023-03-04T09:52:03.858Z,7.20
2023-03-04T09:55:15.979Z,7.20
2023-03-04T09:58:35.236Z,7.20
2023-03-04T10:01:38.943Z,7.20
2023-03-04T10:04:19.299Z,7.30
2023-03-04T10:06:54.497Z,7.40
2023-03-04T10:10:00.614Z,7.50
2023-03-04T10:12:31.858Z,7.50
2023-03-04T10:15:18.780Z,7.60
2023-03-04T10:17:51.443Z,7.60
2023-03-04T10:20:31.599Z,7.60
2023-03-04T10:23:09.594Z,7.60
2023-03-04T10:25:46.661Z,7.70
2023-03-04T10:28:18.844Z,7.80
2023-03-04T10:31:02.576Z,7.90
2023-03-04T10:33:35.153Z,8.00
2023-03-04T10:36:24.364Z,8.10
2023-03-04T10:39:31.430Z,8.10
2023-03-04T10:42:05.668Z,8.10
2023-03-04T10:44:35.392Z,8.20
2023-03-04T10:47:02.481Z,8.20
2023-03-04T10:49:30.184Z,8.20
2023-03-04T10:52:14.984Z,8.30
2023-03-04T10:54:55.254Z,8.40
2023-03-04T10:57:43.940Z,8.40
2023-03-04T11:00:29.688Z,8.50
2023-03-04T11:03:29.639Z,8.50
2023-03-04T11:06:22.116Z,8.50
2023-03-04T11:08:59.559Z,8.40
2023-03-04T11:11:44.440Z,8.40
2023-03-04T11:14:37.500Z,8.40
2023-03-04T11:17:26.776Z,8.50
2023-03-04T11:20:02.362Z,8.50
2023-03-04T11:22:31.428Z,8.60
2023-03-04T11:25:21.434Z,8.70
2023-03-04T11:27:54.473Z,8.70
2023-03-04T11:30:36.305Z,8.80
2023-03-04T11:33:41.569Z,8.80
2023-03-04T11:36:32.235Z,8.80
2023-03-04T11:39:00.062Z,8.90
2023-03-04T11:41:39.173Z,8.90
2023-03-04T11:44:08.821Z,9.00
2023-03-04T11:46:41.586Z,9.10
2023-03-04T11:49:11.498Z,9.20
2023-03-04T11:52:06.219Z,9.30
2023-03-04T11:54:44.614Z,9.40
2023-03-04T11:58:25.730Z,9.40
2023-03-04T12:01:10.441Z,9.50
2023-03-04T12:03:51.858Z,9.50
2023-03-04T12:06:36.103Z,9.50
2023-03-04T12:09:39.962Z,9.60
2023-03-04T12:12:19.678Z,9.70
2023-03-04T12:15:10.716Z,9.80
2023-03-04T12:18:19.334Z,10.10
2023-03-04T12:21:21.012Z,10.70
2023-03-04T12:24:39.206Z,11.50
2023-03-04T12:27:32.516Z,12.30
2023-03-04T12:30:07.598Z,13.30
2023-03-04T12:32:54.765Z,14.10
2023-03-04T12:35:53.705Z,14.80
2023-03-04T12:39:05.009Z,15.60
2023-03-04T12:41:54.628Z,16.30
2023-03-04T12:44:22.621Z,17.20
2023-03-04T12:47:11.638Z,17.90
2023-03-04T12:50:29.135Z,18.60
2023-03-04T12:53:17.564Z,19.40
2023-03-04T12:55:47.284Z,20.20
2023-03-04T12:58:20.259Z,20.70
2023-03-04T13:01:05.436Z,21.00
2023-03-04T13:03:44.094Z,21.20
2023-03-04T13:06:31.399Z,21.40
2023-03-04T13:09:48.196Z,21.50
2023-03-04T13:12:23.441Z,21.50
2023-03-04T13:15:08.345Z,21.50
2023-03-04T13:17:46.092Z,21.40
2023-03-04T13:20:25.638Z,21.40
2023-03-04T13:23:14.756Z,21.40
2023-03-04T13:26:28.045Z,21.20
2023-03-04T13:29:30.850Z,21.10
2023-03-04T13:32:01.731Z,20.90
2023-03-04T13:34:48.372Z,20.90
2023-03-04T13:37:37.717Z,20.90
2023-03-04T13:40:27.642Z,20.90
2023-03-04T13:42:54.602Z,21.00
2023-03-04T13:45:36.903Z,21.10
2023-03-04T13:48:32.452Z,21.10
2023-03-04T13:51:00.283Z,21.00
2023-03-04T13:53:43.585Z,21.00
2023-03-04T13:56:40.045Z,21.00
2023-03-04T13:59:07.303Z,21.20
2023-03-04T14:01:55.574Z,21.30
2023-03-04T14:04:33.863Z,21.40
2023-03-04T14:07:18.104Z,21.40
2023-03-04T14:10:07.481Z,21.20
2023-03-04T14:12:56.406Z,21.00
2023-03-04T14:15:31.901Z,20.70
2023-03-04T14:18:01.524Z,20.40
2023-03-04T14:20:37.049Z,20.10
2023-03-04T14:23:30.814Z,19.90
2023-03-04T14:26:11.927Z,19.90
2023-03-04T14:28:51.879Z,19.80
2023-03-04T14:31:22.215Z,19.60
2023-03-04T14:34:01.735Z,19.30
2023-03-04T14:36:33.186Z,19.00
2023-03-04T14:39:05.886Z,18.60
2023-03-04T14:41:43.101Z,18.40
2023-03-04T14:44:35.875Z,18.10
2023-03-04T14:47:18.190Z,17.90
2023-03-04T14:49:45.584Z,17.70
2023-03-04T14:52:39.185Z,17.70
2023-03-04T14:55:15.182Z,17.60
2023-03-04T14:57:45.807Z,17.50
2023-03-04T15:00:34.754Z,17.20
2023-03-04T15:03:21.868Z,17.00
2023-03-04T15:05:51.751Z,16.70
2023-03-04T15:08:35.019Z,16.50
2023-03-04T15:11:05.865Z,16.40
2023-03-04T15:25:16.291Z,16.20
2023-03-04T15:27:45.615Z,16.00
2023-03-04T15:30:23.984Z,16.00
2023-03-04T15:32:51.654Z,15.80
2023-03-04T15:35:19.876Z,15.70
2023-03-04T15:37:49.590Z,15.40
2023-03-04T15:40:34.963Z,15.00
2023-03-04T15:43:04.825Z,14.50
2023-03-04T15:45:38.236Z,13.90
2023-03-04T15:48:08.158Z,13.30
2023-03-04T15:50:45.555Z,12.70
2023-03-04T15:53:25.984Z,11.90
2023-03-04T15:55:53.633Z,11.20
2023-03-04T15:58:21.182Z,10.60
2023-03-04T16:00:51.345Z,10.00
2023-03-04T16:03:21.746Z,9.50
2023-03-04T16:05:51.545Z,9.10
2023-03-04T16:08:21.640Z,8.70
2023-03-04T16:10:48.972Z,8.30
2023-03-04T16:13:20.019Z,8.10
2023-03-04T16:15:47.968Z,7.80
2023-03-04T16:18:16.332Z,7.50
2023-03-04T16:20:49.035Z,7.30
2023-03-04T16:23:24.878Z,7.10
2023-03-04T16:25:56.081Z,6.90
2023-03-04T16:28:23.736Z,6.70
2023-03-04T16:30:50.852Z,6.50
2023-03-04T16:33:18.084Z,6.40
2023-03-04T16:35:46.502Z,6.30
2023-03-04T16:38:28.027Z,6.20
2023-03-04T16:40:56.987Z,6.10
2023-03-04T16:43:24.692Z,6.00
2023-03-04T16:45:51.802Z,6.00
2023-03-04T16:48:20.236Z,5.90
2023-03-04T16:50:47.529Z,5.80
2023-03-04T16:53:33.943Z,5.60
2023-03-04T16:56:14.847Z,5.50
2023-03-04T16:58:42.737Z,5.40
2023-03-04T17:01:23.253Z,5.40
2023-03-04T17:03:50.323Z,5.40
2023-03-04T17:06:18.554Z,5.30
2023-03-04T17:08:45.588Z,5.20
2023-03-04T17:11:21.441Z,5.20
2023-03-04T17:13:48.858Z,5.20
2023-03-04T17:16:16.379Z,5.20
2023-03-04T17:18:45.830Z,5.20
2023-03-04T17:21:16.928Z,5.20
2023-03-04T17:23:44.280Z,5.20
2023-03-04T17:26:11.573Z,5.20
2023-03-04T17:28:38.627Z,5.20
2023-03-04T17:31:11.334Z,5.10
2023-03-04T17:33:38.824Z,5.10
2023-03-04T17:36:06.052Z,5.10
2023-03-04T17:38:33.560Z,5.00
2023-03-04T17:41:06.009Z,5.10
2023-03-04T17:43:32.970Z,5.10
2023-03-04T17:46:10.303Z,5.10
2023-03-04T17:48:37.387Z,5.10
2023-03-04T17:51:04.867Z,5.10
2023-03-04T17:53:32.998Z,5.10
2023-03-04T17:56:02.776Z,5.10
2023-03-04T17:58:34.024Z,5.10
2023-03-04T18:01:05.708Z,5.10
2023-03-04T18:03:33.280Z,5.10
2023-03-04T18:06:00.244Z,5.20
2023-03-04T18:08:27.425Z,5.20
2023-03-04T18:10:54.397Z,5.20
2023-03-04T18:13:21.562Z,5.20
2023-03-04T18:15:48.756Z,5.20
2023-03-04T18:18:15.793Z,5.20
2023-03-04T18:20:43.108Z,5.20
2023-03-04T18:23:10.086Z,5.20
2023-03-04T18:25:37.400Z,5.20
2023-03-04T18:28:04.397Z,5.20
2023-03-04T18:30:31.760Z,5.20
2023-03-04T18:33:02.811Z,5.20
2023-03-04T18:35:30.262Z,5.10
2023-03-04T18:37:57.213Z,5.10
2023-03-04T18:40:25.751Z,5.10
2023-03-04T18:42:52.708Z,5.10
2023-03-04T18:45:21.468Z,5.10
2023-03-04T18:47:50.783Z,5.10
2023-03-04T18:50:20.509Z,5.10
2023-03-04T18:52:48.002Z,5.10
2023-03-04T18:55:15.262Z,5.10
2023-03-04T18:57:46.933Z,5.00
2023-03-04T19:00:21.340Z,5.00
2023-03-04T19:03:09.913Z,5.00
2023-03-04T19:05:36.995Z,4.90
2023-03-04T19:08:06.708Z,4.90
2023-03-04T19:10:33.821Z,4.90
2023-03-04T19:13:00.959Z,4.90
2023-03-04T19:15:28.364Z,4.80
2023-03-04T19:17:55.408Z,4.80
2023-03-04T19:20:22.651Z,4.80
2023-03-04T19:22:50.802Z,4.80
2023-03-04T19:25:17.891Z,4.80
2023-03-04T19:27:45.027Z,4.80
2023-03-04T19:30:12.550Z,4.70
2023-03-04T19:32:39.530Z,4.70
2023-03-04T19:35:07.162Z,4.70
2023-03-04T19:37:34.111Z,4.70
2023-03-04T19:40:01.227Z,4.70
2023-03-04T19:42:28.291Z,4.70
2023-03-04T19:44:55.552Z,4.70
2023-03-04T19:47:22.438Z,4.70
2023-03-04T19:49:49.637Z,4.70
2023-03-04T19:52:16.512Z,4.80
2023-03-04T19:54:43.401Z,4.80
2023-03-04T19:57:10.373Z,4.80
2023-03-04T19:59:37.502Z,4.80
2023-03-04T20:02:04.848Z,4.80
2023-03-04T20:04:32.685Z,4.80
2023-03-04T20:06:59.605Z,4.70
2023-03-04T20:09:26.538Z,4.70
2023-03-04T20:12:00.463Z,4.70
2023-03-04T20:14:28.160Z,4.70
2023-03-04T20:17:00.793Z,4.70
2023-03-04T20:19:28.800Z,4.70
2023-03-04T20:21:56.482Z,4.60
2023-03-04T20:24:24.808Z,4.60
2023-03-04T20:26:52.600Z,4.60
2023-03-04T20:29:19.628Z,4.60
2023-03-04T20:31:46.879Z,4.60
2023-03-04T20:34:14.499Z,4.60
2023-03-04T20:36:41.595Z,4.60
2023-03-04T20:39:26.871Z,4.60
2023-03-04T20:41:56.197Z,4.50
2023-03-04T20:44:23.398Z,4.50
2023-03-04T20:46:50.541Z,4.50
2023-03-04T20:49:23.431Z,4.50
2023-03-04T20:52:06.551Z,4.50
2023-03-04T20:54:38.671Z,4.50
2023-03-04T20:57:07.757Z,4.50
2023-03-04T20:59:35.767Z,4.50
2023-03-04T21:02:02.822Z,4.50
2023-03-04T21:04:32.526Z,4.50
2023-03-04T21:07:01.962Z,4.50
2023-03-04T21:09:29.061Z,4.50
2023-03-04T21:11:56.357Z,4.50
2023-03-04T21:14:32.034Z,4.50
2023-03-04T21:17:02.426Z,4.50
2023-03-04T21:19:39.877Z,4.50
2023-03-04T21:22:07.181Z,4.50
2023-03-04T21:24:36.455Z,4.50
2023-03-04T21:27:04.583Z,4.60
2023-03-04T21:29:31.819Z,4.60
2023-03-04T21:32:21.129Z,4.60
2023-03-04T21:34:51.986Z,4.60
2023-03-04T21:37:24.004Z,4.70
2023-03-04T21:39:51.320Z,4.70
2023-03-04T21:42:18.704Z,4.70
2023-03-04T21:44:49.555Z,4.70
2023-03-04T21:47:17.772Z,4.70
2023-03-04T21:49:44.880Z,4.80
2023-03-04T21:52:13.004Z,4.70
2023-03-04T21:54:40.147Z,4.70
2023-03-04T21:57:07.058Z,4.80
2023-03-04T21:59:34.141Z,4.80
2023-03-04T22:02:01.876Z,4.80
2023-03-04T22:04:28.885Z,4.80
2023-03-04T22:06:55.963Z,4.80
2023-03-04T22:09:22.955Z,4.80
2023-03-04T22:11:49.921Z,4.80
2023-03-04T22:14:16.987Z,4.90
2023-03-04T22:16:59.289Z,4.80
2023-03-04T22:19:31.051Z,4.90
2023-03-04T22:21:59.316Z,4.90
2023-03-04T22:24:26.387Z,4.90
2023-03-04T22:26:53.642Z,4.90
2023-03-04T22:29:20.699Z,4.90
2023-03-04T22:31:47.915Z,4.90
2023-03-04T22:34:15.873Z,4.90
2023-03-04T22:36:45.898Z,4.90
2023-03-04T22:39:16.848Z,5.00
2023-03-04T22:41:44.363Z,5.00
2023-03-04T22:44:11.653Z,5.00
2023-03-04T22:46:40.056Z,5.00
2023-03-04T22:49:09.994Z,5.00
2023-03-04T22:51:38.377Z,5.10
2023-03-04T22:54:05.319Z,5.10
2023-03-04T22:56:33.054Z,5.10
2023-03-04T22:59:00.029Z,5.10
2023-03-04T23:01:27.152Z,5.10
2023-03-04T23:03:54.200Z,5.10
2023-03-04T23:06:30.070Z,5.10
2023-03-04T23:08:58.493Z,5.10
2023-03-04T23:11:29.408Z,5.20
2023-03-04T23:13:57.178Z,5.20
2023-03-04T23:16:25.303Z,5.20
2023-03-04T23:18:53.227Z,5.20
2023-03-04T23:21:23.555Z,5.20
2023-03-04T23:23:51.871Z,5.20
2023-03-04T23:26:28.905Z,5.20
2023-03-04T23:28:56.924Z,5.20
2023-03-04T23:31:25.712Z,5.20
2023-03-04T23:33:57.139Z,5.20
2023-03-04T23:36:35.580Z,5.20
2023-03-04T23:39:03.632Z,5.20
2023-03-04T23:41:31.684Z,5.20
2023-03-04T23:43:59.410Z,5.20
2023-03-04T23:46:27.893Z,5.20
2023-03-04T23:48:55.514Z,5.20
2023-03-04T23:51:26.408Z,5.20
2023-03-04T23:53:53.911Z,5.20
2023-03-04T23:56:25.326Z,5.20
2023-03-04T23:58:52.603Z,5.20
